Terminal Aerodrome Forecast
Issued by NWS

Home | Current Version | Previous Version | Text Only | Print | Product List | Glossary On
Versions: 1 2 3 4 5 6 7 8 9 10 11 12 13 14 15 16
000
FTUS42 KFFC 241720
TAFRYY
TAF
KRYY 241720Z 2418/2518 33006KT 6SM -RA SCT007 BKN012
     FM241900 31006KT P6SM VCSH BKN015
     FM242300 31005KT P6SM BKN030
     FM250600 31004KT P6SM BKN012
     FM250800 31004KT P6SM BKN008
     FM251400 32003KT P6SM SCT007 BKN012
     FM251600 30007KT P6SM SCT035=

USA.gov is the U.S. government's official web portal to all federal, state and local government web resources and services.